Sao Pedro do Sul, Brazil
Current Conditions -  °F | °C
As of 11:00 AM on Sunday 23 Nov 2014 (Local Time) from SBSM Reporting Station
Scattered Clouds Scattered Clouds  
Wind Chill: 72°   Ceiling: Unl
Heat Index: 72°   Visibility: 6mi
Dew Point: 55°   Wind: 5mph
Humidity: 57%   Direction: 160°SSE
Pressure: 30"   Gusts: NA
Location:  29.62°S, 54.18°W
Report Text: SBSM 231300Z 16004KT 9999 SCT025 22/13 Q1016
Loading
Personal Weather Stations






























Interactive Weather Map New forecast layout! Learn more

10-Day Weather Forecast

Advertisements
Track Severe Weather on mobile